Time,TemperatureF,DewpointF,PressureIn,WindDirection,WindDirectionDegrees,WindSpeedMPH,WindSpeedGustMPH,Humidity,HourlyPrecipIn,Conditions,Clouds,dailyrainin,SoftwareType,DateUTC
2013-04-01 00:18:00,43.6,41.0,29.62,SW,214,4.0,-999.0,91,-99.99,,,0.32,weatherlink.com 1.10,2013-04-01 04:18:00,
2013-04-01 00:33:00,43.6,41.0,29.61,SW,227,5.0,-999.0,91,-99.99,,,0.32,weatherlink.com 1.10,2013-04-01 04:33:00,
2013-04-01 00:48:00,43.5,41.0,29.60,SW,221,4.0,-999.0,90,-99.99,,,0.32,weatherlink.com 1.10,2013-04-01 04:48:00,
2013-04-01 01:18:00,43.1,40.0,29.59,SW,234,0.0,-999.0,90,-99.99,,,0.32,weatherlink.com 1.10,2013-04-01 05:18:00,
2013-04-01 01:33:00,42.8,40.0,29.58,WSW,240,3.0,-999.0,91,-99.99,,,0.32,weatherlink.com 1.10,2013-04-01 05:33:00,
2013-04-01 01:48:00,42.7,40.0,29.58,SW,226,4.0,-999.0,90,-99.99,,,0.32,weatherlink.com 1.10,2013-04-01 05:48:00,
2013-04-01 02:03:00,42.4,40.0,29.57,SW,232,0.0,-999.0,90,-99.99,,,0.32,weatherlink.com 1.10,2013-04-01 06:03:00,
2013-04-01 02:18:00,42.3,40.0,29.57,SW,227,3.0,-999.0,90,-99.99,,,0.32,weatherlink.com 1.10,2013-04-01 06:18:00,
2013-04-01 02:33:00,41.9,40.0,29.56,SW,214,3.0,-999.0,91,-99.99,,,0.32,weatherlink.com 1.10,2013-04-01 06:33:00,
2013-04-01 02:48:00,42.2,40.0,29.56,SSW,197,5.0,-999.0,92,-99.99,,,0.32,weatherlink.com 1.10,2013-04-01 06:48:00,
2013-04-01 03:33:00,43.1,40.0,29.55,SW,234,4.0,-999.0,89,-99.99,,,0.32,weatherlink.com 1.10,2013-04-01 07:33:00,
2013-04-01 03:48:00,43.3,40.0,29.55,SW,225,3.0,-999.0,89,-99.99,,,0.32,weatherlink.com 1.10,2013-04-01 07:48:00,
2013-04-01 04:03:00,43.8,41.0,29.55,WSW,242,6.0,-999.0,89,-99.99,,,0.32,weatherlink.com 1.10,2013-04-01 08:03:00,
2013-04-01 04:33:00,44.3,41.0,29.55,SW,232,7.0,-999.0,87,-99.99,,,0.32,weatherlink.com 1.10,2013-04-01 08:33:00,
2013-04-01 04:48:00,44.3,41.0,29.55,SW,226,5.0,-999.0,87,-99.99,,,0.32,weatherlink.com 1.10,2013-04-01 08:48:00,
2013-04-01 05:03:00,44.2,41.0,29.55,West,260,2.0,-999.0,87,-99.99,,,0.32,weatherlink.com 1.10,2013-04-01 09:03:00,
2013-04-01 05:49:00,43.3,41.0,29.55,West,267,0.0,-999.0,91,-99.99,,,0.36,weatherlink.com 1.10,2013-04-01 09:49:00,
2013-04-01 06:04:00,43.2,41.0,29.55,West,263,1.0,-999.0,92,-99.99,,,0.37,weatherlink.com 1.10,2013-04-01 10:04:00,
2013-04-01 06:49:00,43.1,42.0,29.56,West,275,2.0,-999.0,94,-99.99,,,0.39,weatherlink.com 1.10,2013-04-01 10:49:00,
2013-04-01 07:04:00,43.0,41.0,29.56,WNW,286,3.0,-999.0,94,-99.99,,,0.39,weatherlink.com 1.10,2013-04-01 11:04:00,
2013-04-01 07:19:00,42.9,41.0,29.57,NW,308,2.0,-999.0,94,-99.99,,,0.40,weatherlink.com 1.10,2013-04-01 11:19:00,
2013-04-01 07:34:00,42.6,41.0,29.57,NW,314,0.0,-999.0,94,-99.99,,,0.42,weatherlink.com 1.10,2013-04-01 11:34:00,
2013-04-01 07:49:00,42.3,41.0,29.58,West,280,8.0,-999.0,94,-99.99,,,0.42,weatherlink.com 1.10,2013-04-01 11:49:00,
2013-04-01 08:04:00,41.7,40.0,29.58,West,281,4.0,-999.0,93,-99.99,,,0.42,weatherlink.com 1.10,2013-04-01 12:04:00,
2013-04-01 08:19:00,41.7,40.0,29.59,West,277,9.0,-999.0,92,-99.99,,,0.42,weatherlink.com 1.10,2013-04-01 12:19:00,
2013-04-01 08:34:00,41.9,40.0,29.59,West,278,4.0,-999.0,91,-99.99,,,0.42,weatherlink.com 1.10,2013-04-01 12:34:00,
2013-04-01 08:49:00,41.9,39.0,29.59,WNW,283,5.0,-999.0,89,-99.99,,,0.42,weatherlink.com 1.10,2013-04-01 12:49:00,
2013-04-01 09:03:00,41.6,37.0,29.62,ENE,67,10.0,-999.0,84,-99.99,,,0.42,weatherlink.com 1.10,2013-04-01 13:03:00,
2013-04-01 09:19:00,36.4,33.0,29.63,NNE,13,9.0,-999.0,88,-99.99,,,0.43,weatherlink.com 1.10,2013-04-01 13:19:00,
2013-04-01 09:34:00,35.5,33.0,29.64,NNW,342,5.0,-999.0,89,-99.99,,,0.43,weatherlink.com 1.10,2013-04-01 13:34:00,
2013-04-01 10:04:00,34.2,32.0,29.66,North,5,2.0,-999.0,91,-99.99,,,0.43,weatherlink.com 1.10,2013-04-01 14:04:00,
2013-04-01 10:19:00,34.4,33.0,29.67,NNW,330,2.0,-999.0,93,-99.99,,,0.44,weatherlink.com 1.10,2013-04-01 14:19:00,
2013-04-01 10:34:00,34.6,33.0,29.68,NW,319,4.0,-999.0,92,-99.99,,,0.44,weatherlink.com 1.10,2013-04-01 14:34:00,
2013-04-01 11:04:00,33.9,31.0,29.70,NE,48,0.0,-999.0,90,-99.99,,,0.44,weatherlink.com 1.10,2013-04-01 15:04:00,
2013-04-01 11:19:00,33.7,30.0,29.70,WNW,292,8.0,-999.0,87,-99.99,,,0.44,weatherlink.com 1.10,2013-04-01 15:19:00,
2013-04-01 11:34:00,34.6,30.0,29.71,West,268,9.0,-999.0,82,-99.99,,,0.44,weatherlink.com 1.10,2013-04-01 15:34:00,
2013-04-01 12:04:00,36.2,28.0,29.72,West,269,7.0,-999.0,72,-99.99,,,0.44,weatherlink.com 1.10,2013-04-01 16:04:00,
2013-04-01 12:19:00,38.4,29.0,29.72,WNW,295,4.0,-999.0,69,-99.99,,,0.44,weatherlink.com 1.10,2013-04-01 16:19:00,
2013-04-01 12:34:00,36.9,28.0,29.73,NW,313,8.0,-999.0,69,-99.99,,,0.44,weatherlink.com 1.10,2013-04-01 16:34:00,
2013-04-01 12:49:00,36.8,29.0,29.74,WNW,292,5.0,-999.0,74,-99.99,,,0.44,weatherlink.com 1.10,2013-04-01 16:49:00,
2013-04-01 13:05:00,37.9,26.0,29.74,NNW,338,8.0,-999.0,63,-99.99,,,0.44,weatherlink.com 1.10,2013-04-01 17:05:00,
2013-04-01 13:20:00,37.2,25.0,29.75,West,265,8.0,-999.0,61,-99.99,,,0.44,weatherlink.com 1.10,2013-04-01 17:20:00,
2013-04-01 13:35:00,38.6,24.0,29.75,NW,317,9.0,-999.0,56,-99.99,,,0.44,weatherlink.com 1.10,2013-04-01 17:35:00,
2013-04-01 13:50:00,38.3,25.0,29.76,WNW,298,4.0,-999.0,59,-99.99,,,0.44,weatherlink.com 1.10,2013-04-01 17:50:00,
2013-04-01 14:05:00,38.0,23.0,29.77,West,273,7.0,-999.0,55,-99.99,,,0.00,weatherlink.com 1.10,2013-04-01 18:05:00,
2013-04-01 14:20:00,37.0,23.0,29.78,WSW,240,9.0,-999.0,57,-99.99,,,0.00,weatherlink.com 1.10,2013-04-01 18:20:00,
2013-04-01 14:35:00,35.5,23.0,29.78,WSW,244,9.0,-999.0,60,-99.99,,,0.00,weatherlink.com 1.10,2013-04-01 18:35:00,
2013-04-01 14:50:00,37.4,22.0,29.78,NW,309,4.0,-999.0,54,-99.99,,,0.00,weatherlink.com 1.10,2013-04-01 18:50:00,
2013-04-01 15:05:00,38.1,21.0,29.79,WNW,298,4.0,-999.0,51,-99.99,,,0.00,weatherlink.com 1.10,2013-04-01 19:05:00,
2013-04-01 15:20:00,37.4,20.0,29.79,WNW,287,9.0,-999.0,49,-99.99,,,0.00,weatherlink.com 1.10,2013-04-01 19:20:00,
2013-04-01 15:50:00,36.9,20.0,29.80,NW,308,9.0,-999.0,51,-99.99,,,0.00,weatherlink.com 1.10,2013-04-01 19:50:00,
2013-04-01 16:05:00,35.5,22.0,29.80,West,272,9.0,-999.0,59,-99.99,,,0.00,weatherlink.com 1.10,2013-04-01 20:05:00,
2013-04-01 16:20:00,35.6,23.0,29.81,NNE,32,1.0,-999.0,60,-99.99,,,0.00,weatherlink.com 1.10,2013-04-01 20:20:00,
2013-04-01 17:20:00,34.8,23.0,29.83,North,360,6.0,-999.0,62,-99.99,,,0.00,weatherlink.com 1.10,2013-04-01 21:20:00,
2013-04-01 17:35:00,34.8,22.0,29.84,NNW,328,7.0,-999.0,59,-99.99,,,0.00,weatherlink.com 1.10,2013-04-01 21:35:00,
2013-04-01 17:50:00,34.7,22.0,29.84,NNE,24,8.0,-999.0,59,-99.99,,,0.00,weatherlink.com 1.10,2013-04-01 21:50:00,
2013-04-01 18:05:00,34.2,22.0,29.85,NNE,29,13.0,-999.0,62,-99.99,,,0.00,weatherlink.com 1.10,2013-04-01 22:05:00,
2013-04-01 18:35:00,33.4,22.0,29.86,NE,37,5.0,-999.0,63,-99.99,,,0.00,weatherlink.com 1.10,2013-04-01 22:35:00,
2013-04-01 18:51:00,32.8,22.0,29.87,NNW,344,6.0,-999.0,64,-99.99,,,0.00,weatherlink.com 1.10,2013-04-01 22:51:00,
2013-04-01 19:06:00,32.1,21.0,29.88,North,9,4.0,-999.0,65,-99.99,,,0.00,weatherlink.com 1.10,2013-04-01 23:06:00,
2013-04-01 19:21:00,31.8,21.0,29.88,WNW,291,5.0,-999.0,64,-99.99,,,0.00,weatherlink.com 1.10,2013-04-01 23:21:00,
2013-04-01 19:36:00,31.4,21.0,29.89,North,355,5.0,-999.0,65,-99.99,,,0.00,weatherlink.com 1.10,2013-04-01 23:36:00,
2013-04-01 20:06:00,30.7,19.0,29.89,North,5,2.0,-999.0,61,-99.99,,,0.00,weatherlink.com 1.10,2013-04-02 00:06:00,
2013-04-01 20:21:00,30.3,18.0,29.89,NW,306,8.0,-999.0,61,-99.99,,,0.00,weatherlink.com 1.10,2013-04-02 00:21:00,
2013-04-01 20:36:00,30.1,19.0,29.90,North,5,3.0,-999.0,63,-99.99,,,0.00,weatherlink.com 1.10,2013-04-02 00:36:00,
2013-04-01 20:51:00,29.8,19.0,29.90,NNW,327,0.0,-999.0,65,-99.99,,,0.00,weatherlink.com 1.10,2013-04-02 00:51:00,
2013-04-01 21:06:00,29.7,20.0,29.90,NW,304,2.0,-999.0,66,-99.99,,,0.00,weatherlink.com 1.10,2013-04-02 01:06:00,
2013-04-01 21:51:00,29.7,18.0,29.91,WNW,282,5.0,-999.0,63,-99.99,,,0.00,weatherlink.com 1.10,2013-04-02 01:51:00,
2013-04-01 22:06:00,29.3,20.0,29.91,West,273,6.0,-999.0,68,-99.99,,,0.00,weatherlink.com 1.10,2013-04-02 02:06:00,
2013-04-01 22:21:00,28.7,21.0,29.91,NW,325,3.0,-999.0,73,-99.99,,,0.00,weatherlink.com 1.10,2013-04-02 02:21:00,
2013-04-01 22:36:00,28.4,22.0,29.91,WNW,285,5.0,-999.0,77,-99.99,,,0.00,weatherlink.com 1.10,2013-04-02 02:36:00,
2013-04-01 22:51:00,28.0,22.0,29.90,West,263,2.0,-999.0,78,-99.99,,,0.00,weatherlink.com 1.10,2013-04-02 02:51:00,
2013-04-01 23:22:00,28.1,22.0,29.90,WNW,282,4.0,-999.0,79,-99.99,,,0.00,weatherlink.com 1.10,2013-04-02 03:22:00,
2013-04-01 23:51:00,27.7,23.0,29.90,NW,306,6.0,-999.0,81,-99.99,,,0.00,weatherlink.com 1.10,2013-04-02 03:51:00,